sensor_id;sensor_type;location;lat;lon;timestamp;pressure;altitude;pressure_sealevel;temperature;humidity
14757;BME280;62446;53.214;10.398;2022-12-22T19:40:41;100072.28;;;4.22;88.01
14757;BME280;62446;53.214;10.398;2022-12-22T19:43:45;100068.50;;;4.50;87.18
14757;BME280;62446;53.214;10.398;2022-12-22T19:46:50;100066.38;;;4.65;85.79
14757;BME280;62446;53.214;10.398;2022-12-22T19:49:54;100060.50;;;4.68;84.19
14757;BME280;62446;53.214;10.398;2022-12-22T19:52:58;100057.59;;;4.63;84.31
14757;BME280;62446;53.214;10.398;2022-12-22T19:56:17;100065.13;;;4.68;83.96
14757;BME280;62446;53.214;10.398;2022-12-22T19:59:24;100064.91;;;4.69;83.08
14757;BME280;62446;53.214;10.398;2022-12-22T20:02:39;100063.44;;;4.67;83.56
14757;BME280;62446;53.214;10.398;2022-12-22T20:05:43;100052.97;;;4.57;83.49
14757;BME280;62446;53.214;10.398;2022-12-22T20:08:47;100052.97;;;4.57;82.92
14757;BME280;62446;53.214;10.398;2022-12-22T20:11:52;100057.34;;;4.58;84.24
14757;BME280;62446;53.214;10.398;2022-12-22T20:14:56;100053.19;;;4.55;83.00
14757;BME280;62446;53.214;10.398;2022-12-22T20:18:00;100056.75;;;4.56;83.92
14757;BME280;62446;53.214;10.398;2022-12-22T20:21:06;100057.78;;;4.68;83.52
14757;BME280;62446;53.214;10.398;2022-12-22T20:24:18;100052.53;;;4.73;83.76
14757;BME280;62446;53.214;10.398;2022-12-22T20:27:28;100058.63;;;4.89;82.79
14757;BME280;62446;53.214;10.398;2022-12-22T20:30:34;100059.66;;;4.88;82.42
14757;BME280;62446;53.214;10.398;2022-12-22T20:33:38;100056.28;;;5.12;81.37
14757;BME280;62446;53.214;10.398;2022-12-22T20:36:42;100051.69;;;4.86;83.16
14757;BME280;62446;53.214;10.398;2022-12-22T20:39:46;100047.25;;;4.92;83.03
14757;BME280;62446;53.214;10.398;2022-12-22T20:42:51;100040.94;;;4.98;82.63
14757;BME280;62446;53.214;10.398;2022-12-22T20:45:57;100036.94;;;4.94;82.65
14757;BME280;62446;53.214;10.398;2022-12-22T20:49:03;100032.31;;;5.01;82.58
14757;BME280;62446;53.214;10.398;2022-12-22T20:52:15;100034.84;;;5.09;82.27
14757;BME280;62446;53.214;10.398;2022-12-22T20:55:22;100028.97;;;5.06;82.04
14757;BME280;62446;53.214;10.398;2022-12-22T20:58:32;100039.25;;;5.10;82.01
14757;BME280;62446;53.214;10.398;2022-12-22T21:01:36;100033.59;;;5.05;81.26
14757;BME280;62446;53.214;10.398;2022-12-22T21:04:40;100031.47;;;5.07;82.82
14757;BME280;62446;53.214;10.398;2022-12-22T21:07:46;100028.94;;;5.12;82.65
14757;BME280;62446;53.214;10.398;2022-12-22T21:10:51;100026.00;;;5.07;82.02
14757;BME280;62446;53.214;10.398;2022-12-22T21:13:57;100026.63;;;4.96;82.45
14757;BME280;62446;53.214;10.398;2022-12-22T21:17:01;100020.97;;;4.91;82.26
14757;BME280;62446;53.214;10.398;2022-12-22T21:20:08;100015.50;;;4.91;82.61
14757;BME280;62446;53.214;10.398;2022-12-22T21:23:13;100010.88;;;4.98;83.45
14757;BME280;62446;53.214;10.398;2022-12-22T21:26:21;100007.50;;;4.96;82.63
14757;BME280;62446;53.214;10.398;2022-12-22T21:29:28;100009.00;;;4.92;83.02
14757;BME280;62446;53.214;10.398;2022-12-22T21:32:32;99989.28;;;4.83;82.34
14757;BME280;62446;53.214;10.398;2022-12-22T21:35:36;99992.41;;;4.87;82.64
14757;BME280;62446;53.214;10.398;2022-12-22T21:38:40;99996.19;;;4.86;83.09
14757;BME280;62446;53.214;10.398;2022-12-22T21:41:44;99989.50;;;4.81;82.99
14757;BME280;62446;53.214;10.398;2022-12-22T21:45:06;99988.44;;;4.69;83.44
14757;BME280;62446;53.214;10.398;2022-12-22T21:48:12;99991.19;;;4.69;83.32
14757;BME280;62446;53.214;10.398;2022-12-22T21:51:16;99988.25;;;4.64;83.19
14757;BME280;62446;53.214;10.398;2022-12-22T21:54:22;99999.41;;;4.62;84.23
14757;BME280;62446;53.214;10.398;2022-12-22T21:57:26;99993.72;;;4.57;83.40
14757;BME280;62446;53.214;10.398;2022-12-22T22:00:32;99994.16;;;4.61;83.38
14757;BME280;62446;53.214;10.398;2022-12-22T22:03:36;99990.78;;;4.59;82.98
14757;BME280;62446;53.214;10.398;2022-12-22T22:06:40;99983.63;;;4.58;83.60
14757;BME280;62446;53.214;10.398;2022-12-22T22:09:44;99981.31;;;4.55;83.66
14757;BME280;62446;53.214;10.398;2022-12-22T22:12:47;99983.22;;;4.47;84.29
14757;BME280;62446;53.214;10.398;2022-12-22T22:15:53;99984.31;;;4.26;84.67
14757;BME280;62446;53.214;10.398;2022-12-22T22:18:56;99984.31;;;4.33;85.20
14757;BME280;62446;53.214;10.398;2022-12-22T22:22:00;99986.41;;;4.31;85.40
14757;BME280;62446;53.214;10.398;2022-12-22T22:25:05;99981.56;;;4.06;86.08
14757;BME280;62446;53.214;10.398;2022-12-22T22:28:10;99979.88;;;3.99;86.27
14757;BME280;62446;53.214;10.398;2022-12-22T22:31:15;99984.09;;;3.88;87.11
14757;BME280;62446;53.214;10.398;2022-12-22T22:34:19;99982.63;;;3.99;87.61
14757;BME280;62446;53.214;10.398;2022-12-22T22:37:23;99975.25;;;3.86;87.55
14757;BME280;62446;53.214;10.398;2022-12-22T22:40:27;99967.28;;;3.84;88.88
14757;BME280;62446;53.214;10.398;2022-12-22T22:43:30;99967.28;;;3.77;88.20
14757;BME280;62446;53.214;10.398;2022-12-22T22:46:36;99961.00;;;3.84;88.73
14757;BME280;62446;53.214;10.398;2022-12-22T22:49:39;99959.97;;;3.98;88.29
14757;BME280;62446;53.214;10.398;2022-12-22T22:52:43;99952.19;;;3.95;87.70
14757;BME280;62446;53.214;10.398;2022-12-22T22:55:47;99948.63;;;4.01;87.78
14757;BME280;62446;53.214;10.398;2022-12-22T22:58:51;99931.19;;;4.02;87.17
14757;BME280;62446;53.214;10.398;2022-12-22T23:01:56;99941.28;;;3.95;88.24
14757;BME280;62446;53.214;10.398;2022-12-22T23:05:01;99937.06;;;3.86;88.01
